KFWA

Fort Wayne International Airport

Fort Wayne, Indiana, USA
METAR KFWA 221354Z 22010KT 10SM BKN200 06/01 A3012 RMK AO2 SLP205 T00560011
Observed Flight Rules
Oct-22 @ 13:54 UTC (27 minutes ago) Visual Flight Rules
Wind Visibility Clouds
220° at 10 knots 10 miles
  • Broken at 20,000' AGL
Temperatures Readings
Current 6°C / 43°F
Dewpoint 1°C / 34°F
Humidity 71%
Altimeter 30.12" Hg
Pressure 1020.5 hPa
Elevation 248
METAR KFWA 221354Z 22010KT 10SM BKN200 06/01 A3012 RMK AO2 SLP205 T00560011
Observed Flight Rules
Oct-22 @ 13:54 UTC
(27 minutes ago)
VFR
Wind Visibility
220° at 10 knots 10 miles
Clouds
  • Broken at 20,000' AGL
Temperature Dewpoint
6°C / 43°F 1°C / 34°F
Humidity Altimeter Pressure
71% 30.12" Hg 1020.5 hPa